• Join FlightAware (Why Join?)
  • Login
  • US Flag 
05:23PM EST


 

Airport Tracker/Info


-or-


 

Live Flight TrackerFlight Track Log ✈ SKW5303 ✈ 13-May-2013 ✈ KSFO - KBFL

Flight Track Log - Related Links

Times and Time Zones

All times are in EDT time to prevent confusion due to time zone crossing. See the SKW5303 flight status page for this flight to view local times or setup timezone preferences in your user account.

Time Position Orientation Groundspeed Altitude Reporting Facility
EDT Latitude Longitude Course Direction KTS MPH feet Rate Location/Type
06:41PM 37.6842 -122.5518 122° Southeast  Level FlightAware Approximate
06:42PM 37.6500 -122.4511 90° East  Level FlightAware Approximate
06:43PM 37.6240 -122.3557 50° Northeast  Level FlightAware Approximate
06:44PM 37.6806 -122.2709 50° Northeast  Level FlightAware Approximate
06:45PM 37.7180 -122.1767 76° East  Level FlightAware Approximate
06:46PM 37.7386 -122.0687 78° East  Level FlightAware Approximate
06:47PM 37.7626 -121.9623 67° East  Level FlightAware Approximate
06:48PM 37.7815 -121.8540 79° East  Level FlightAware Approximate
06:49PM 37.7982 -121.7449 79° East  Level FlightAware Approximate
06:50PM 37.8055 -121.6344 82° East  Level FlightAware Approximate
06:51PM 37.8167 -121.5242 90° East  Level FlightAware Approximate
06:52PM 37.8167 -121.4129 90° East  Level FlightAware Approximate
06:53PM 37.8183 -121.3019 82° East  Level FlightAware Approximate
06:54PM 37.8306 -121.1917 82° East  Level FlightAware Approximate
06:55PM 37.8359 -121.0808 86° East  Level FlightAware Approximate
06:56PM 37.8413 -120.9698 86° East  Level FlightAware Approximate
06:57PM 37.8465 -120.8587 87° East  Level FlightAware Approximate
06:58PM 37.8299 -120.7582 135° Southeast  Level FlightAware Approximate
06:59PM 37.7651 -120.6836 144° Southeast  Level FlightAware Approximate
07:00PM 37.6936 -120.6191 145° Southeast  Level FlightAware Approximate
07:01PM 37.6220 -120.5548 145° Southeast  Level FlightAware Approximate
07:02PM 37.5589 -120.4778 135° Southeast  Level FlightAware Approximate
07:03PM 37.4910 -120.4076 142° Southeast  Level FlightAware Approximate
07:04PM 37.4190 -120.3500 180° South  Level FlightAware Approximate
07:05PM 37.3540 -120.2768 137° Southeast  Level FlightAware Approximate
07:06PM 37.2859 -120.2076 146° Southeast  Level FlightAware Approximate
07:07PM 37.2129 -120.1462 141° Southeast  Level FlightAware Approximate
07:08PM 37.1490 -120.0709 133° Southeast  Level FlightAware Approximate
07:09PM 37.0792 -120.0049 146° Southeast  Level FlightAware Approximate
07:10PM 37.0077 -119.9410 141° Southeast  Level FlightAware Approximate
07:11PM 36.9412 -119.8694 136° Southeast  Level FlightAware Approximate
07:12PM 36.8759 -119.7975 165° South  Level FlightAware Approximate
07:13PM 36.7927 -119.7630 158° South  Level FlightAware Approximate
07:14PM 36.7111 -119.7222 158° South  Level FlightAware Approximate
07:15PM 36.6296 -119.6814 158° South  Level FlightAware Approximate
07:16PM 36.5516 -119.6327 156° South  Level FlightAware Approximate
07:17PM 36.4712 -119.5888 156° South  Level FlightAware Approximate
07:18PM 36.3899 -119.5500 180° South  Level FlightAware Approximate
07:19PM 36.3113 -119.5085 149° Southeast  Level FlightAware Approximate
07:20PM 36.2297 -119.4687 160° South  Level FlightAware Approximate
07:21PM 36.1469 -119.4333 180° South  Level FlightAware Approximate
07:22PM 36.0671 -119.3919 158° South  Level FlightAware Approximate
07:23PM 35.9856 -119.3511 158° South  Level FlightAware Approximate
07:24PM 35.9065 -119.3039 154° Southeast  Level FlightAware Approximate
07:25PM 35.8233 -119.2693 162° South  Level FlightAware Approximate
07:26PM 35.7430 -119.2258 154° Southeast  Level FlightAware Approximate
07:27PM 35.6629 -119.1814 158° South  Level FlightAware Approximate
07:28PM 35.5829 -119.1415 169° South  Level FlightAware Approximate
07:29PM 35.5036 -119.0985 149° Southeast  Level FlightAware Approximate
07:30PM 35.4333 -119.0500 151° Southeast  Level FlightAware Approximate
07:31PM 35.4339 -119.0577 151° Southeast  Level Estimated
07:32PM 35.4333 -119.0500 151° Southeast  Level FlightAware Approximate
07:33PM 35.4339 -119.0577 151° Southeast  Level Estimated
07:34PM 35.4333 -119.0500 151° Southeast  Level FlightAware Approximate
07:35PM 35.4339 -119.0577 151° Southeast  Level Estimated
07:36PM 35.4333 -119.0500 151° Southeast  Level FlightAware Approximate
07:37PM 35.4339 -119.0577 151° Southeast  Level Estimated
07:38PM 35.4333 -119.0500 151° Southeast  Level FlightAware Approximate
07:39PM 35.4339 -119.0577 151° Southeast  Level Estimated
07:40PM 35.4333 -119.0500 151° Southeast  Level FlightAware Approximate
07:41PM 35.4339 -119.0577 151° Southeast  Level Estimated
07:42PM 35.4333 -119.0500 151° Southeast  Level FlightAware Approximate